Adel, OR

5:18 PM PST on February 27, 2015 (GMT -0800)
Lake County | Change Station
CLOSE
Current Station
Airport
Location: Lakeview AWS,
Elevation: 4728 ft
Nearby Weather Stations

Elev 4728 ft 42.16 °N, 120.40 °W | Updated 3 minutes ago

Mostly Cloudy
Mostly Cloudy
37 °F
Feels Like 34 °F
N
5
Wind Variable Wind from NNE

Today
High -- | Low -- °F
--% Chance of Precip.
Yesterday
High -- | Low -- °F
Precip. -- in
6:37 AM 5:46 PM
Waxing Gibbous, 73% visible
Pressure 29.64 in
Visibility 10.0 miles
Clouds Scattered Clouds 7000 ft
Mostly Cloudy 8500 ft
Windchill 34 °F
Dew Point 28 °F
Humidity 70%
Rainfall 0.01 in
Snow Depth Not available.
UV 0 out of 12
Pollen .60 out of 12
Air Quality Not available.
Flu Activity Not available.
METAR KLKV 280115Z 02004KT 10SM SCT070 BKN085 03/M02 A2964 RMK AO1 P0001

More Conditions Fewer Conditions

Pressure 29.64 in
Visibility 10.0 miles
Clouds Scattered Clouds 7000 ft
Mostly Cloudy 8500 ft
Windchill 34 °F
Dew Point 28 °F
Humidity 70%
Rainfall 0.01 in
Snow Depth Not available.
UV 0 out of 12
Pollen .60 out of 12
Air Quality Not available.
Flu Activity Not available.
METAR KLKV 280115Z 02004KT 10SM SCT070 BKN085 03/M02 A2964 RMK AO1 P0001

More Conditions Fewer Conditions

10-Day Weather Forecast

Almanac

Astronomy

Feb. 27, 2015 Rise Set
Actual Time
Civil Twilight
Nautical Twilight
Astronomical Twilight
Moon
Length of Visible Light
Length of Day
Tomorrow will be .
, % of the Moon is Illuminated

Today's Extremes

State Highs State Lows

Community

WunderPhotos

Upload Photos

1,800,914 photos uploaded!

WunderBlogs® & News

Nearby

Air Quality

  Air Quality AQ Index Pollutant
Not available.

Snow Depth

Station Depth Elevation

Earthquake Activity

City Distance Mag. Time & Date
Minimum magnitude displayed is 2.5.

Coastal Water Temperatures

Place Temperature

Nearby Weather Stations